Time;durP1;ratioP1;P1;durP2;ratioP2;P2;SDS_P1;SDS_P2;PMS_P1;PMS_P2;Temp;Humidity;BMP_temperature;BMP_pressure;BME280_temperature;BME280_humidity;BME280_pressure;Samples;Min_cycle;Max_cycle;Signal;HPM_P1;HPM_P2
2021/08/05 00:01:18;;;;;;;9.15;5.58;;;;;;;14.16;72.35;101155.77;1776004;79;21390;-85
2021/08/05 00:03:45;;;;;;;6.50;4.28;;;;;;;14.12;72.43;101152.61;1771107;80;21027;-85
2021/08/05 00:06:11;;;;;;;6.00;4.53;;;;;;;14.12;72.54;101161.00;1776335;80;21998;-85
2021/08/05 00:08:38;;;;;;;7.45;4.78;;;;;;;14.09;72.61;101160.49;1776061;79;21042;-85
2021/08/05 00:11:05;;;;;;;11.65;4.50;;;;;;;14.06;72.63;101160.46;1775942;80;21066;-84
2021/08/05 00:13:31;;;;;;;5.65;4.78;;;;;;;14.04;72.68;101158.63;1773830;80;21019;-85
2021/08/05 00:15:58;;;;;;;7.83;4.75;;;;;;;14.04;72.74;101155.98;1776125;80;21489;-85
2021/08/05 00:18:25;;;;;;;10.20;5.62;;;;;;;14.00;72.80;101162.98;1776088;80;21747;-85
2021/08/05 00:20:51;;;;;;;12.25;4.78;;;;;;;13.96;72.85;101155.45;1775934;79;21058;-85
2021/08/05 00:23:18;;;;;;;5.62;4.55;;;;;;;13.87;72.82;101147.75;1776285;79;21023;-85
2021/08/05 00:25:45;;;;;;;5.67;4.90;;;;;;;13.88;72.93;101152.19;1776009;80;21290;-85
2021/08/05 00:28:11;;;;;;;7.60;4.92;;;;;;;13.86;73.04;101151.28;1776285;80;21074;-85
2021/08/05 00:30:38;;;;;;;10.40;5.05;;;;;;;13.82;73.04;101156.06;1776276;80;21732;-85
2021/08/05 00:33:04;;;;;;;5.83;4.67;;;;;;;13.79;73.14;101159.52;1775960;79;20991;-85
2021/08/05 00:35:31;;;;;;;7.87;4.85;;;;;;;13.77;73.27;101153.31;1776260;80;21543;-84
2021/08/05 00:37:58;;;;;;;5.58;4.58;;;;;;;13.75;73.35;101162.53;1776338;79;21070;-84
2021/08/05 00:40:24;;;;;;;7.75;4.67;;;;;;;13.74;73.38;101159.86;1776284;80;21022;-85
2021/08/05 00:42:53;;;;;;;6.37;4.83;;;;;;;13.73;73.51;101163.38;1776441;79;21757;-84
2021/08/05 00:45:19;;;;;;;5.83;4.40;;;;;;;13.71;73.59;101163.35;1751784;80;21516;-84
2021/08/05 00:47:46;;;;;;;9.03;4.65;;;;;;;13.70;73.62;101166.88;1760569;80;21098;-84
2021/08/05 00:50:13;;;;;;;8.55;5.08;;;;;;;13.70;73.60;101164.64;1775939;80;21548;-84
2021/08/05 00:52:39;;;;;;;7.20;5.62;;;;;;;13.69;73.68;101165.08;1776006;79;21011;-84
2021/08/05 00:55:06;;;;;;;10.82;5.12;;;;;;;13.69;73.77;101166.84;1743611;80;21746;-85
2021/08/05 00:57:33;;;;;;;7.15;4.78;;;;;;;13.68;73.89;101165.05;1775966;80;21560;-84
2021/08/05 01:00:00;;;;;;;6.97;5.35;;;;;;;13.67;73.89;101166.80;1776142;79;21086;-84
2021/08/05 01:02:28;;;;;;;6.97;4.90;;;;;;;13.65;73.93;101167.21;1776359;80;21370;-84
2021/08/05 01:04:54;;;;;;;7.45;4.60;;;;;;;13.63;73.98;101162.33;1776160;80;21070;-84
2021/08/05 01:07:26;;;;;;;7.22;5.20;;;;;;;13.62;74.05;101159.20;1776305;79;21813;-84
2021/08/05 01:10:07;;;;;;;7.37;5.60;;;;;;;13.60;74.11;101156.97;1775993;80;21095;-84
2021/08/05 01:12:59;;;;;;;8.05;5.60;;;;;;;13.59;74.24;101162.70;1776404;79;21512;-84
2021/08/05 01:15:27;;;;;;;10.72;5.72;;;;;;;13.57;74.27;101159.53;1776150;80;21556;-84
2021/08/05 01:18:02;;;;;;;6.75;5.25;;;;;;;13.56;74.32;101157.77;1776213;80;21094;-84
2021/08/05 01:20:30;;;;;;;11.40;6.65;;;;;;;13.54;74.37;101156.42;1777978;80;21843;-85
2021/08/05 01:23:25;;;;;;;8.03;6.47;;;;;;;13.54;74.42;101151.13;1775992;80;21090;-85
2021/08/05 01:26:14;;;;;;;9.08;6.30;;;;;;;13.53;74.53;101148.45;1775660;80;21071;-85
2021/08/05 01:28:43;;;;;;;9.03;6.62;;;;;;;13.50;74.58;101145.33;1776025;79;21067;-85
2021/08/05 01:31:10;;;;;;;12.55;6.25;;;;;;;13.50;74.68;101145.77;1776278;79;21038;-85
2021/08/05 01:33:37;;;;;;;11.18;7.00;;;;;;;13.48;74.69;101150.14;1776228;79;21760;-85
2021/08/05 01:36:04;;;;;;;12.40;7.10;;;;;;;13.45;74.73;101143.45;1776187;80;21016;-85
2021/08/05 01:38:37;;;;;;;9.50;6.85;;;;;;;13.43;74.76;101146.06;1776198;80;21007;-86
2021/08/05 01:41:06;;;;;;;9.03;7.05;;;;;;;13.43;74.85;101146.06;1776225;80;21051;-85
2021/08/05 01:43:33;;;;;;;8.50;6.47;;;;;;;13.40;74.89;101138.97;1775730;80;21556;-86
2021/08/05 01:46:00;;;;;;;10.65;7.10;;;;;;;13.40;74.98;101142.94;1776082;80;21732;-85
2021/08/05 01:48:26;;;;;;;12.23;7.35;;;;;;;13.39;75.03;101138.50;1776168;80;21015;-84
2021/08/05 01:50:53;;;;;;;12.10;6.95;;;;;;;13.38;75.09;101135.81;1776280;80;21024;-84
2021/08/05 01:53:19;;;;;;;12.53;7.28;;;;;;;13.39;75.20;101140.26;1776153;80;21054;-84
2021/08/05 01:55:46;;;;;;;10.38;7.10;;;;;;;13.41;75.29;101138.09;1776337;79;21011;-84
2021/08/05 01:58:13;;;;;;;10.68;7.17;;;;;;;13.42;75.33;101144.30;1776303;80;21751;-84
2021/08/05 02:00:40;;;;;;;12.03;7.62;;;;;;;13.45;75.41;101150.06;1776157;79;21027;-85
2021/08/05 02:03:12;;;;;;;10.10;6.53;;;;;;;13.47;75.49;101153.19;1765213;80;34301;-85
2021/08/05 02:06:08;;;;;;;10.03;7.60;;;;;;;13.55;75.63;101155.57;1775773;79;21035;-86
2021/08/05 02:08:46;;;;;;;11.80;7.00;;;;;;;13.67;75.69;101151.38;1776191;80;21023;-87
2021/08/05 02:11:33;;;;;;;11.22;7.30;;;;;;;13.80;75.66;101150.73;1775772;79;21811;-86
2021/08/05 02:14:01;;;;;;;13.90;7.20;;;;;;;13.91;75.62;101149.61;1776101;79;21032;-86
2021/08/05 02:16:29;;;;;;;12.00;7.33;;;;;;;14.00;75.53;101145.77;1776076;80;21526;-86
2021/08/05 02:18:56;;;;;;;14.18;7.50;;;;;;;14.10;75.47;101147.73;1776152;80;21074;-86
2021/08/05 02:21:24;;;;;;;9.50;7.17;;;;;;;14.17;75.31;101146.05;1743937;80;21019;-85
2021/08/05 02:23:51;;;;;;;9.88;7.40;;;;;;;14.18;75.17;101148.73;1776231;80;22740;-86
2021/08/05 02:26:19;;;;;;;14.83;8.00;;;;;;;14.20;75.07;101148.33;1776093;80;21766;-85
2021/08/05 02:28:45;;;;;;;13.40;8.10;;;;;;;14.19;74.97;101139.95;1713111;80;21094;-86
2021/08/05 02:31:13;;;;;;;13.65;8.40;;;;;;;14.18;74.92;101144.77;1776233;80;21046;-85
2021/08/05 02:33:40;;;;;;;13.48;8.18;;;;;;;14.15;74.84;101143.81;1775512;80;21035;-85
2021/08/05 02:36:06;;;;;;;16.90;9.50;;;;;;;14.11;74.85;101145.96;1775980;79;21764;-86
2021/08/05 02:38:33;;;;;;;11.55;7.80;;;;;;;14.04;74.83;101142.75;1775707;79;21042;-86
2021/08/05 02:41:00;;;;;;;11.65;7.55;;;;;;;13.98;74.89;101140.89;1743669;80;21050;-85
2021/08/05 02:43:28;;;;;;;9.18;7.55;;;;;;;13.92;74.97;101140.79;1776278;79;21510;-86
2021/08/05 02:45:55;;;;;;;10.08;7.72;;;;;;;13.87;75.05;101143.78;1776240;80;21077;-86
2021/08/05 02:48:21;;;;;;;10.45;7.45;;;;;;;13.82;75.13;101135.77;1743709;80;21764;-85
2021/08/05 02:50:48;;;;;;;10.20;6.92;;;;;;;13.80;75.30;101136.19;1776213;80;20999;-91
2021/08/05 02:53:15;;;;;;;9.75;7.50;;;;;;;13.77;75.42;101138.32;1776524;80;21026;-85
2021/08/05 02:55:43;;;;;;;11.33;6.97;;;;;;;13.76;75.73;101136.55;1776144;80;21019;-85
2021/08/05 02:58:12;;;;;;;9.10;6.35;;;;;;;13.78;75.82;101140.55;1776240;80;21039;-85
2021/08/05 03:00:38;;;;;;;9.05;6.17;;;;;;;13.78;76.14;101132.18;1776237;80;21769;-85
2021/08/05 03:03:05;;;;;;;8.98;6.60;;;;;;;13.79;76.25;101131.73;1784686;79;21105;-85
2021/08/05 03:05:32;;;;;;;9.63;7.00;;;;;;;13.79;76.19;101131.33;1784761;80;21041;-85
2021/08/05 03:07:58;;;;;;;8.15;6.17;;;;;;;13.80;76.18;101129.56;1784309;79;21312;-85
2021/08/05 03:10:25;;;;;;;8.75;6.33;;;;;;;13.83;76.41;101135.33;1784298;79;21109;-85
2021/08/05 03:12:52;;;;;;;13.15;7.12;;;;;;;13.85;76.45;101130.55;1784188;79;21713;-85
2021/08/05 03:15:18;;;;;;;10.30;6.62;;;;;;;13.90;76.40;101129.29;1783914;79;21058;-85
2021/08/05 03:17:45;;;;;;;9.08;6.65;;;;;;;13.92;76.38;101127.56;1783942;80;21050;-85
2021/08/05 03:20:15;;;;;;;8.78;6.85;;;;;;;13.93;76.15;101128.03;1765033;80;21082;-85
2021/08/05 03:22:40;;;;;;;8.90;7.45;;;;;;;13.94;76.03;101127.15;1779691;79;22316;-85
2021/08/05 03:25:08;;;;;;;10.72;7.12;;;;;;;13.94;75.92;101129.35;1775618;80;21781;-85
2021/08/05 03:27:34;;;;;;;9.65;6.70;;;;;;;13.95;75.85;101131.59;1775346;80;21117;-85
2021/08/05 03:30:01;;;;;;;10.90;6.67;;;;;;;13.97;75.86;101128.54;1775661;80;21125;-85
2021/08/05 03:32:28;;;;;;;9.20;6.42;;;;;;;13.99;75.89;101124.16;1775934;80;21015;-85
2021/08/05 03:34:55;;;;;;;9.20;6.72;;;;;;;14.02;75.97;101122.90;1776558;79;21015;-85
2021/08/05 03:37:22;;;;;;;9.83;6.58;;;;;;;14.06;76.09;101126.05;1776239;79;21751;-86
2021/08/05 03:39:48;;;;;;;13.88;6.08;;;;;;;14.13;76.20;101128.34;1776244;80;21042;-86
2021/08/05 03:42:15;;;;;;;8.63;6.72;;;;;;;14.22;76.27;101126.30;1776332;80;21050;-85
2021/08/05 03:44:41;;;;;;;8.85;6.35;;;;;;;14.36;76.25;101122.12;1776411;79;21382;-85
2021/08/05 03:47:08;;;;;;;7.17;5.85;;;;;;;14.50;76.29;101117.89;1776438;79;20999;-85
2021/08/05 03:49:35;;;;;;;9.18;6.00;;;;;;;14.62;76.38;101117.24;1776302;80;22591;-85
2021/08/05 03:52:01;;;;;;;9.83;7.50;;;;;;;14.78;76.34;101120.53;1776349;79;21160;-85
2021/08/05 03:54:28;;;;;;;12.75;6.67;;;;;;;15.46;77.95;101113.84;1777323;80;21043;-86
2021/08/05 03:56:55;;;;;;;9.23;5.42;;;;;;;16.73;77.83;101114.03;1776427;79;21632;-85
2021/08/05 03:59:21;;;;;;;10.75;4.83;;;;;;;17.98;76.91;101120.69;1776054;79;21046;-86
2021/08/05 04:01:48;;;;;;;14.73;5.28;;;;;;;19.30;75.65;101117.30;1776145;80;22664;-86
2021/08/05 04:04:15;;;;;;;19.00;5.50;;;;;;;20.59;73.98;101118.55;1776222;80;21085;-87
2021/08/05 04:06:42;;;;;;;9.33;5.17;;;;;;;21.78;71.75;101117.53;1776029;80;21073;-87
2021/08/05 04:09:08;;;;;;;11.30;5.55;;;;;;;22.85;69.42;101112.95;1775965;80;21078;-87
2021/08/05 04:11:35;;;;;;;11.68;5.55;;;;;;;23.80;67.48;101112.73;1776430;79;21014;-85
2021/08/05 04:14:02;;;;;;;9.98;5.60;;;;;;;24.62;65.39;101113.33;1776417;80;22608;-85
2021/08/05 04:16:29;;;;;;;7.17;5.65;;;;;;;26.19;61.94;101109.91;1776328;80;21449;-85
2021/08/05 04:18:55;;;;;;;9.83;5.30;;;;;;;26.19;61.94;101109.91;1765158;80;21051;-86
2021/08/05 04:21:22;;;;;;;8.38;4.62;;;;;;;26.89;60.67;101115.09;1775795;80;21896;-85
2021/08/05 04:23:48;;;;;;;8.95;4.58;;;;;;;27.60;59.20;101113.27;1775958;79;21038;-86
2021/08/05 04:26:15;;;;;;;7.75;4.37;;;;;;;28.31;57.49;101108.53;1775974;80;21746;-85
2021/08/05 04:28:42;;;;;;;6.90;4.50;;;;;;;29.00;55.80;101103.23;1776005;79;21101;-87
2021/08/05 04:31:09;;;;;;;8.28;4.65;;;;;;;29.55;54.90;101104.30;1775792;79;21043;-87
2021/08/05 04:33:36;;;;;;;6.22;4.40;;;;;;;30.17;53.92;101105.71;1775394;79;21624;-95
2021/08/05 04:36:02;;;;;;;9.70;5.10;;;;;;;30.79;52.51;101102.02;1771273;79;21050;-91
2021/08/05 04:38:29;;;;;;;10.28;5.30;;;;;;;31.50;51.56;101099.52;1776069;80;22511;-91
2021/08/05 04:40:55;;;;;;;7.17;4.35;;;;;;;32.30;49.79;101093.94;1776172;79;21050;-90
2021/08/05 04:43:22;;;;;;;8.75;4.45;;;;;;;32.80;48.24;101094.05;1776431;79;21050;-90
2021/08/05 04:45:49;;;;;;;6.00;4.58;;;;;;;33.40;47.86;101088.87;1776268;79;21027;-90
2021/08/05 04:48:15;;;;;;;5.83;4.25;;;;;;;34.20;46.81;101092.22;1776420;80;21011;-92
2021/08/05 04:50:43;;;;;;;6.90;3.77;;;;;;;34.81;45.04;101092.53;1776459;80;22413;-87
2021/08/05 04:53:12;;;;;;;12.98;4.22;;;;;;;35.41;43.98;101089.05;1776152;79;21011;-89
2021/08/05 04:55:38;;;;;;;7.10;3.83;;;;;;;35.81;42.85;101088.83;1775425;80;21035;-87
2021/08/05 04:58:06;;;;;;;13.72;3.87;;;;;;;36.31;41.57;101087.29;1775791;79;21062;-89
2021/08/05 05:00:39;;;;;;;7.72;3.62;;;;;;;36.66;40.96;101085.03;1776117;80;21054;-85
2021/08/05 05:03:06;;;;;;;6.35;3.65;;;;;;;37.14;40.23;101072.45;1765159;79;22612;-85
2021/08/05 05:05:32;;;;;;;5.08;3.55;;;;;;;37.70;38.99;101083.84;1760680;80;20986;-85
2021/08/05 05:08:18;;;;;;;5.28;3.52;;;;;;;37.93;38.12;101078.26;1760351;81;21065;-87
2021/08/05 05:10:45;;;;;;;5.10;3.70;;;;;;;38.39;37.34;101078.43;1735222;82;21419;-85
2021/08/05 05:13:12;;;;;;;5.20;3.50;;;;;;;38.66;35.85;101077.88;1733670;82;21047;-85
2021/08/05 05:15:39;;;;;;;9.65;3.58;;;;;;;38.58;35.50;101072.72;1733541;82;21701;-85
2021/08/05 05:18:05;;;;;;;5.03;3.50;;;;;;;38.80;34.94;101071.17;1733634;82;21549;-85
2021/08/05 05:20:33;;;;;;;4.35;3.00;;;;;;;39.05;34.53;101070.35;1733739;82;21035;-85
2021/08/05 05:23:00;;;;;;;4.78;3.52;;;;;;;39.06;33.67;101070.22;1733737;82;21623;-85
2021/08/05 05:25:26;;;;;;;3.52;2.55;;;;;;;39.17;33.42;101066.46;1734098;82;21541;-85
2021/08/05 05:27:53;;;;;;;4.97;2.52;;;;;;;39.37;32.68;101068.77;1734067;82;21756;-85
2021/08/05 05:30:20;;;;;;;7.83;2.47;;;;;;;39.49;32.64;101066.78;1733894;82;21413;-83
2021/08/05 05:32:47;;;;;;;3.37;2.25;;;;;;;39.78;31.68;101065.45;1733742;82;21059;-83
2021/08/05 05:35:16;;;;;;;3.52;2.55;;;;;;;39.71;31.06;101059.28;1733827;82;21071;-83
2021/08/05 05:37:44;;;;;;;6.08;2.10;;;;;;;39.44;30.50;101060.34;1733681;82;21027;-83
2021/08/05 05:40:12;;;;;;;3.15;2.20;;;;;;;39.24;30.54;101059.91;1733866;82;21772;-83
2021/08/05 05:42:39;;;;;;;4.65;2.55;;;;;;;38.64;29.87;101055.14;1733898;82;21039;-83
2021/08/05 05:45:07;;;;;;;5.62;2.52;;;;;;;36.57;29.40;101052.32;1733916;82;21039;-84
2021/08/05 05:47:33;;;;;;;6.15;2.75;;;;;;;34.06;30.27;101056.27;1734029;82;21256;-85
2021/08/05 05:50:00;;;;;;;5.67;3.10;;;;;;;32.03;31.69;101055.66;1733964;82;21103;-85
2021/08/05 05:52:27;;;;;;;5.55;2.83;;;;;;;30.50;33.08;101056.52;1734034;81;21742;-85
2021/08/05 05:54:53;;;;;;;2.95;2.65;;;;;;;29.04;34.25;101051.13;1734122;82;21015;-84
2021/08/05 05:57:20;;;;;;;7.58;3.30;;;;;;;27.85;35.48;101053.63;1734087;82;21016;-84
2021/08/05 05:59:47;;;;;;;2.37;1.98;;;;;;;26.85;36.86;101055.39;1733830;82;21047;-85
2021/08/05 06:02:13;;;;;;;3.17;1.82;;;;;;;26.22;38.04;101054.95;1734008;82;21047;-85
2021/08/05 06:04:40;;;;;;;4.55;2.20;;;;;;;25.54;38.96;101062.59;1733982;82;21745;-85
2021/08/05 06:07:07;;;;;;;5.15;2.15;;;;;;;25.18;39.80;101063.67;1733863;82;21106;-85
2021/08/05 06:09:33;;;;;;;7.28;1.70;;;;;;;24.86;40.47;101063.30;1734021;82;21043;-84
2021/08/05 06:12:00;;;;;;;4.67;1.70;;;;;;;24.70;41.18;101066.92;1733800;82;21545;-85
2021/08/05 06:14:26;;;;;;;2.25;1.87;;;;;;;24.39;41.60;101065.50;1733804;82;20996;-85
2021/08/05 06:16:53;;;;;;;1.92;1.47;;;;;;;24.06;41.97;101070.84;1733777;82;21821;-85
2021/08/05 06:19:20;;;;;;;3.10;1.52;;;;;;;23.82;42.45;101073.72;1733712;82;21094;-85
2021/08/05 06:21:46;;;;;;;3.37;1.57;;;;;;;23.54;42.92;101068.06;1733796;82;21031;-85
2021/08/05 06:24:13;;;;;;;4.25;1.80;;;;;;;23.37;43.61;101078.77;1734093;82;21126;-85
2021/08/05 06:26:40;;;;;;;1.52;1.37;;;;;;;23.27;43.48;101075.41;1734284;82;21047;-85
2021/08/05 06:29:08;;;;;;;2.85;1.92;;;;;;;23.15;43.75;101074.80;1734103;82;22586;-85
2021/08/05 06:31:35;;;;;;;1.45;1.35;;;;;;;23.18;44.22;101074.27;1734246;82;21109;-85
2021/08/05 06:34:03;;;;;;;2.02;1.10;;;;;;;23.19;44.34;101074.68;1734312;82;21126;-85
2021/08/05 06:36:30;;;;;;;3.25;1.35;;;;;;;23.16;44.39;101068.49;1734422;82;21460;-85
2021/08/05 06:38:56;;;;;;;3.98;1.50;;;;;;;23.23;44.58;101074.16;1734206;82;21063;-85
2021/08/05 06:41:23;;;;;;;1.72;1.30;;;;;;;23.25;44.49;101069.63;1734485;82;21712;-85
2021/08/05 06:43:49;;;;;;;1.10;1.00;;;;;;;23.17;44.43;101056.38;1734103;82;21012;-85
2021/08/05 06:46:16;;;;;;;1.80;1.20;;;;;;;23.24;44.48;101071.91;1734301;82;21207;-85
2021/08/05 06:48:43;;;;;;;1.98;1.30;;;;;;;23.13;44.60;101073.48;1734275;82;21083;-85
2021/08/05 06:51:10;;;;;;;3.47;1.47;;;;;;;23.01;44.93;101079.07;1734269;82;21016;-84
2021/08/05 06:53:37;;;;;;;2.08;1.40;;;;;;;22.88;45.04;101066.36;1734258;82;21797;-86
2021/08/05 06:56:04;;;;;;;2.55;1.70;;;;;;;22.76;45.07;101067.51;1734195;82;21039;-85
2021/08/05 06:58:31;;;;;;;2.87;1.47;;;;;;;22.75;45.63;101070.22;1734209;82;21031;-86
2021/08/05 07:01:00;;;;;;;1.70;1.27;;;;;;;22.80;45.53;101066.99;1733898;82;21468;-85
2021/08/05 07:03:27;;;;;;;2.05;1.20;;;;;;;22.68;45.69;101038.62;1734260;82;21086;-85
2021/08/05 07:05:53;;;;;;;4.47;1.37;;;;;;;22.73;45.72;101063.57;1734279;82;21752;-85
2021/08/05 07:08:20;;;;;;;3.80;1.40;;;;;;;22.82;45.99;101064.69;1734173;82;21037;-85
2021/08/05 07:10:47;;;;;;;3.62;1.52;;;;;;;22.88;45.92;101059.22;1734131;82;21035;-85
2021/08/05 07:18:06;;;;;;;2.62;1.70;;;;;;;23.02;45.95;101060.25;1682452;83;23409;-85
2021/08/05 07:20:33;;;;;;;2.08;1.40;;;;;;;22.93;46.03;101059.11;1734025;82;20999;-85
2021/08/05 07:22:59;;;;;;;3.55;1.30;;;;;;;23.01;46.26;101057.16;1734188;82;21035;-85
2021/08/05 07:25:26;;;;;;;5.97;1.55;;;;;;;23.09;46.21;101060.58;1734250;82;21098;-85
2021/08/05 07:27:52;;;;;;;3.40;1.22;;;;;;;23.19;46.33;101058.57;1734203;82;20984;-85
2021/08/05 07:30:19;;;;;;;1.55;1.40;;;;;;;23.30;46.23;101059.68;1734032;82;21757;-85
2021/08/05 07:32:46;;;;;;;2.92;1.30;;;;;;;23.41;46.07;101050.03;1734096;82;21020;-86
2021/08/05 07:35:13;;;;;;;1.98;1.57;;;;;;;23.38;45.83;101052.31;1733948;82;21087;-85
2021/08/05 07:37:39;;;;;;;4.67;1.55;;;;;;;23.32;45.75;101048.91;1734187;82;21102;-85
2021/08/05 07:40:07;;;;;;;4.42;2.08;;;;;;;23.28;45.87;101058.83;1734191;82;21067;-85
2021/08/05 07:42:34;;;;;;;2.27;1.47;;;;;;;23.39;45.95;101037.98;1733907;82;21781;-85
2021/08/05 07:45:01;;;;;;;3.17;1.60;;;;;;;23.26;45.68;101055.30;1733881;82;21051;-86
2021/08/05 07:47:28;;;;;;;2.75;2.27;;;;;;;23.04;45.67;101057.11;1734175;82;21066;-85
2021/08/05 07:49:54;;;;;;;4.70;3.02;;;;;;;22.93;45.74;101051.52;1734048;82;21584;-85
2021/08/05 07:52:21;;;;;;;2.72;1.90;;;;;;;22.86;45.94;101057.03;1734211;82;21039;-85
2021/08/05 07:54:48;;;;;;;2.02;1.50;;;;;;;22.95;46.08;101064.45;1734011;82;21762;-85
2021/08/05 07:57:14;;;;;;;1.90;1.65;;;;;;;23.03;46.13;101051.33;1734155;82;21520;-85
2021/08/05 07:59:42;;;;;;;2.02;1.27;;;;;;;23.03;46.13;101051.33;1734198;82;21155;-85
2021/08/05 08:02:09;;;;;;;2.52;1.95;;;;;;;22.89;45.89;101053.38;1733781;82;21392;-85
2021/08/05 08:04:36;;;;;;;8.55;2.92;;;;;;;22.89;45.89;101053.38;1734218;82;20988;-85
2021/08/05 08:07:04;;;;;;;2.50;1.75;;;;;;;22.82;46.12;101031.61;1734216;82;21754;-85
2021/08/05 08:09:32;;;;;;;4.72;1.90;;;;;;;22.90;45.83;101048.45;1734001;82;21031;-86
2021/08/05 08:11:58;;;;;;;2.75;1.40;;;;;;;22.83;45.88;101051.71;1734231;82;21035;-86
2021/08/05 08:14:25;;;;;;;2.50;1.47;;;;;;;22.92;46.25;101049.30;1734028;82;21032;-85
2021/08/05 08:16:52;;;;;;;2.52;1.55;;;;;;;22.90;46.12;101045.30;1734202;82;21055;-86
2021/08/05 08:19:18;;;;;;;3.00;1.57;;;;;;;22.83;46.23;101045.00;1734022;82;21753;-86
2021/08/05 08:21:45;;;;;;;10.50;8.33;;;;;;;22.76;46.11;101048.72;1734069;82;21047;-85
2021/08/05 08:24:12;;;;;;;4.83;3.40;;;;;;;22.53;46.12;101055.03;1734105;82;21027;-85
2021/08/05 08:26:38;;;;;;;4.20;3.15;;;;;;;22.44;46.73;101039.99;1734043;82;21098;-86
2021/08/05 08:29:05;;;;;;;1.90;1.50;;;;;;;22.44;46.73;101039.99;1734337;82;21556;-85
2021/08/05 08:31:31;;;;;;;4.25;2.80;;;;;;;22.40;46.60;101041.84;1734123;82;23119;-86
2021/08/05 08:33:58;;;;;;;5.85;4.47;;;;;;;22.25;46.68;101016.20;1733838;82;21048;-86
2021/08/05 08:36:25;;;;;;;3.08;1.87;;;;;;;22.25;46.68;101016.20;1734106;82;21027;-86
2021/08/05 08:38:51;;;;;;;2.47;1.85;;;;;;;22.31;46.51;101042.89;1734111;82;21059;-86
2021/08/05 08:41:21;;;;;;;2.83;1.85;;;;;;;22.21;46.59;101045.30;1734217;82;21032;-86
2021/08/05 08:43:47;;;;;;;2.65;1.62;;;;;;;22.02;46.75;101034.50;1734170;82;22523;-86
2021/08/05 08:46:20;;;;;;;3.45;1.42;;;;;;;21.83;46.98;101038.83;1734036;82;21075;-86
2021/08/05 08:48:42;;;;;;;2.20;1.70;;;;;;;21.76;47.25;101036.28;1733713;82;21035;-86
2021/08/05 08:51:09;;;;;;;2.22;1.60;;;;;;;21.76;47.48;101034.48;1713949;82;21004;-86
2021/08/05 08:53:37;;;;;;;1.98;1.37;;;;;;;21.73;47.39;101033.18;1734112;82;21015;-86
2021/08/05 08:56:07;;;;;;;3.55;1.37;;;;;;;21.72;47.41;101034.98;1734159;82;22774;-85
2021/08/05 08:58:33;;;;;;;2.05;1.85;;;;;;;21.62;47.39;101030.67;1734022;82;21027;-84
2021/08/05 09:01:00;;;;;;;1.75;1.40;;;;;;;21.61;47.68;101030.26;1733609;82;21154;-84
2021/08/05 09:03:28;;;;;;;2.77;1.77;;;;;;;21.70;47.82;101039.48;1733666;82;21004;-84
2021/08/05 09:05:56;;;;;;;3.00;1.80;;;;;;;21.74;47.83;101037.18;1733733;82;22225;-84
2021/08/05 09:08:22;;;;;;;2.27;1.32;;;;;;;21.83;47.92;101025.87;1733971;82;21758;-84
2021/08/05 09:10:51;;;;;;;2.17;1.85;;;;;;;22.09;48.00;101028.09;1733749;82;21099;-84
2021/08/05 09:13:19;;;;;;;3.47;2.58;;;;;;;22.27;47.54;101027.78;1733843;82;21027;-83
2021/08/05 09:18:38;;;;;;;1.52;1.42;;;;;;;22.24;46.68;101030.51;1741258;81;21007;-84
2021/08/05 09:21:18;;;;;;;3.87;1.47;;;;;;;22.28;46.90;101029.56;1742416;82;21790;-84
2021/08/05 09:23:55;;;;;;;4.05;3.42;;;;;;;22.37;47.10;101028.95;1742309;82;21117;-84
2021/08/05 09:26:43;;;;;;;1.82;1.30;;;;;;;22.45;46.88;101022.53;1740543;81;21022;-84
2021/08/05 09:29:20;;;;;;;2.75;1.70;;;;;;;22.62;46.45;101024.88;1741980;80;21074;-84
2021/08/05 09:31:58;;;;;;;3.83;1.30;;;;;;;22.69;46.01;101033.23;1742253;82;20983;-84
2021/08/05 09:34:39;;;;;;;2.42;1.85;;;;;;;22.59;45.82;101020.90;1759071;81;21867;-84
2021/08/05 09:37:09;;;;;;;2.92;1.60;;;;;;;22.54;45.76;101021.44;1760253;81;21002;-84
2021/08/05 09:39:40;;;;;;;1.77;1.30;;;;;;;22.51;45.96;101015.69;1760120;80;21027;-85
2021/08/05 09:42:09;;;;;;;4.30;1.70;;;;;;;22.48;45.80;101014.41;1760787;80;21022;-84
2021/08/05 09:47:11;;;;;;;3.98;1.80;;;;;;;22.26;46.04;101018.42;1758798;81;21279;-85
2021/08/05 09:49:50;;;;;;;2.65;1.90;;;;;;;22.27;45.91;101018.40;1760754;81;20979;-84
2021/08/05 09:52:35;;;;;;;2.70;1.60;;;;;;;22.26;45.79;101019.77;1760795;81;21074;-85
2021/08/05 09:55:08;;;;;;;2.22;1.70;;;;;;;22.37;45.88;101007.49;1760776;81;21034;-85
2021/08/05 09:57:41;;;;;;;2.60;2.15;;;;;;;22.41;46.15;101011.44;1760885;81;21023;-85
2021/08/05 10:00:19;;;;;;;2.27;1.70;;;;;;;22.41;46.23;101006.08;1761174;81;22638;-85
2021/08/05 10:02:48;;;;;;;3.00;2.33;;;;;;;22.55;45.99;101013.83;1761043;81;21464;-86
2021/08/05 10:05:20;;;;;;;4.70;1.90;;;;;;;22.52;45.67;101000.47;1728399;81;21058;-86
2021/08/05 10:07:49;;;;;;;2.37;1.80;;;;;;;22.60;45.80;101025.36;1760592;81;21010;-84
2021/08/05 10:10:19;;;;;;;4.10;2.27;;;;;;;22.54;44.92;100999.11;1760673;80;21109;-84
2021/08/05 10:12:57;;;;;;;2.70;1.80;;;;;;;22.37;44.66;100990.94;1760400;79;21837;-84
2021/08/05 10:15:24;;;;;;;2.75;2.00;;;;;;;22.30;45.30;100987.98;1758758;79;21047;-85
2021/08/05 10:17:57;;;;;;;4.33;1.80;;;;;;;22.27;45.49;100998.28;1760718;79;21087;-85
2021/08/05 10:20:24;;;;;;;2.83;2.00;;;;;;;22.26;45.63;100990.27;1760925;81;21014;-84
2021/08/05 10:22:52;;;;;;;2.62;2.00;;;;;;;22.28;45.69;100986.66;1760741;81;21046;-84
2021/08/05 10:25:25;;;;;;;3.87;1.25;;;;;;;22.29;45.40;100986.20;1760742;81;21765;-84
2021/08/05 10:27:51;;;;;;;1.92;1.57;;;;;;;22.33;45.49;100983.88;1760630;79;21010;-84
2021/08/05 10:30:19;;;;;;;2.65;1.77;;;;;;;22.34;45.18;100982.09;1759982;79;21073;-85
2021/08/05 10:32:47;;;;;;;3.58;1.50;;;;;;;22.41;45.27;100978.34;1759733;81;21639;-85
2021/08/05 10:35:14;;;;;;;3.27;1.45;;;;;;;22.43;45.53;100975.17;1759792;81;21034;-85
2021/08/05 10:37:41;;;;;;;2.37;1.60;;;;;;;22.36;45.57;100977.12;1759603;79;21818;-85
2021/08/05 10:40:09;;;;;;;2.20;2.00;;;;;;;22.31;45.75;100989.73;1759822;81;21002;-84
2021/08/05 10:42:36;;;;;;;5.50;2.00;;;;;;;22.24;45.90;100976.88;1759920;80;21592;-85
2021/08/05 10:45:03;;;;;;;2.47;1.65;;;;;;;22.17;45.71;100990.41;1759904;81;21380;-85
2021/08/05 10:47:31;;;;;;;2.60;2.08;;;;;;;22.13;46.00;100970.84;1759936;81;21038;-85
2021/08/05 10:50:01;;;;;;;2.37;1.62;;;;;;;22.13;45.81;100966.36;1760337;81;22728;-84
2021/08/05 10:52:38;;;;;;;5.70;3.15;;;;;;;22.13;45.84;100981.57;1760741;81;20971;-84
2021/08/05 10:55:35;;;;;;;2.77;2.00;;;;;;;22.05;45.95;100979.00;1758613;81;21089;-85
2021/08/05 10:58:18;;;;;;;3.62;1.32;;;;;;;22.09;45.96;100971.36;1760750;81;21010;-86
2021/08/05 11:00:53;;;;;;;1.55;1.30;;;;;;;22.24;45.72;100967.93;1760779;81;21078;-85
2021/08/05 11:03:37;;;;;;;4.75;1.42;;;;;;;22.22;45.66;100970.64;1760527;79;21797;-85
2021/08/05 11:06:05;;;;;;;7.70;1.60;;;;;;;22.31;45.86;100957.55;1743579;82;21039;-85
2021/08/05 11:08:32;;;;;;;5.15;1.55;;;;;;;22.42;45.70;100962.23;1747571;81;21086;-85
2021/08/05 11:11:25;;;;;;;6.65;1.75;;;;;;;22.51;45.50;100963.85;1745840;82;21058;-85
2021/08/05 11:14:05;;;;;;;;;;;;;;;22.45;45.48;100964.86;1747425;82;21572;-85
2021/08/05 11:17:00;;;;;;;2.65;1.40;;;;;;;22.43;45.72;100956.41;1754435;80;22717;-86
2021/08/05 11:19:29;;;;;;;2.05;1.32;;;;;;;22.50;46.21;100952.25;1734378;82;21035;-85
2021/08/05 11:21:56;;;;;;;6.30;3.37;;;;;;;22.65;46.03;100943.42;1734149;82;21036;-85
2021/08/05 11:24:40;;;;;;;4.22;1.60;;;;;;;22.73;45.89;100947.27;1734152;81;21378;-85
2021/08/05 11:27:16;;;;;;;6.08;2.02;;;;;;;22.75;46.01;100935.61;1734973;82;21058;-85
2021/08/05 11:29:43;;;;;;;3.17;1.30;;;;;;;22.81;45.81;100942.17;1742573;80;22641;-86
2021/08/05 11:32:27;;;;;;;3.50;1.30;;;;;;;22.73;45.79;100938.78;1742366;82;21572;-85
2021/08/05 11:34:56;;;;;;;;;;;;;;;22.73;46.08;100944.59;1731880;81;21040;-85
2021/08/05 11:37:24;;;;;;;1.40;1.30;;;;;;;22.69;45.58;100942.00;1735210;81;20756;-85
2021/08/05 11:39:52;;;;;;;1.92;1.40;;;;;;;22.65;45.70;100925.98;1734316;82;21540;-85
2021/08/05 11:42:24;;;;;;;1.60;1.35;;;;;;;22.43;45.69;100934.51;1734243;82;21837;-86